Canadon Seco, Argentina
Current Conditions -  °F | °C
As of 3:00 PM on Saturday 20 Dec 2014 (Local Time) from SAVC Reporting Station
Light Rain Light Rain  
Wind Chill: 55°   Ceiling: 8000
Heat Index: 55°   Visibility: 6mi
Dew Point: 43°   Wind: 7mph
Humidity: 63%   Direction: 110°ESE
Pressure: 29.71"   Gusts: NA
Location:  46.55°S, 67.58°W
Report Text: SAVC 201800Z 11006KT 9999 -RA SCT030FEW040CB BKN080 13/06 Q1006
Loading
Personal Weather Stations






























Interactive Weather Map New forecast layout! Learn more

10-Day Weather Forecast

Advertisements
Track Severe Weather on mobile